Time;durP1;ratioP1;P1;durP2;ratioP2;P2;SDS_P1;SDS_P2;PMS_P1;PMS_P2;Temp;Humidity;BMP_temperature;BMP_pressure;BME280_temperature;BME280_humidity;BME280_pressure;Samples;Min_cycle;Max_cycle;Signal;HPM_P1;HPM_P2
2023/04/23 00:01:24;;;;;;;;;;;;;;;;;;5056650;28;19917;-75
2023/04/23 00:04:11;;;;;;;;;;;;;;;;;;5061925;28;19916;-75
2023/04/23 00:06:57;;;;;;;;;;;;;;;;;;5050399;28;19940;-75
2023/04/23 00:09:44;;;;;;;;;;;;;;;;;;5060726;28;19932;-75
2023/04/23 00:12:30;;;;;;;;;;;;;;;;;;5053781;28;19919;-75
2023/04/23 00:15:19;;;;;;;;;;;;;;;;;;5056259;28;19912;-75
2023/04/23 00:18:05;;;;;;;;;;;;;;;;;;5057213;28;19916;-74
2023/04/23 00:20:52;;;;;;;;;;;;;;;;;;5058656;28;20394;-75
2023/04/23 00:23:38;;;;;;;;;;;;;;;;;;5057402;28;19925;-75
2023/04/23 00:26:25;;;;;;;;;;;;;;;;;;5060134;28;19927;-75
2023/04/23 00:29:11;;;;;;;;;;;;;;;;;;5059628;28;20291;-75
2023/04/23 00:31:58;;;;;;;;;;;;;;;;;;5061470;28;19927;-74
2023/04/23 00:34:47;;;;;;;;;;;;;;;;;;5067938;28;19920;-74
2023/04/23 00:37:34;;;;;;;;;;;;;;;;;;5052417;28;19924;-74
2023/04/23 00:40:20;;;;;;;;;;;;;;;;;;5064833;28;20371;-75
2023/04/23 00:43:08;;;;;;;;;;;;;;;;;;5060242;28;19923;-75
2023/04/23 00:45:55;;;;;;;;;;;;;;;;;;5048513;28;19925;-75
2023/04/23 00:48:41;;;;;;;;;;;;;;;;;;5063761;28;19917;-75
2023/04/23 00:51:28;;;;;;;;;;;;;;;;;;5065845;28;20180;-75
2023/04/23 00:54:14;;;;;;;;;;;;;;;;;;5066089;28;19927;-75
2023/04/23 00:57:01;;;;;;;;;;;;;;;;;;5067294;28;19917;-76
2023/04/23 00:59:47;;;;;;;;;;;;;;;;;;5064891;28;20292;-75
2023/04/23 01:02:35;;;;;;;;;;;;;;;;;;5060297;28;20288;-76
2023/04/23 01:05:21;;;;;;;;;;;;;;;;;;5051640;28;20319;-75
2023/04/23 01:08:08;;;;;;;;;;;;;;;;;;5054628;28;19924;-76
2023/04/23 01:10:54;;;;;;;;;;;;;;;;;;5050568;28;19921;-79
2023/04/23 01:13:41;;;;;;;;;;;;;;;;;;5066588;28;19917;-75
2023/04/23 01:16:28;;;;;;;;;;;;;;;;;;5064990;28;20596;-75
2023/04/23 01:19:14;;;;;;;;;;;;;;;;;;5047087;28;20291;-76
2023/04/23 01:22:01;;;;;;;;;;;;;;;;;;5063916;28;19924;-76
2023/04/23 01:24:47;;;;;;;;;;;;;;;;;;5062152;28;19925;-76
2023/04/23 01:27:34;;;;;;;;;;;;;;;;;;5058924;28;19923;-76
2023/04/23 01:30:21;;;;;;;;;;;;;;;;;;5046590;28;19928;-75
2023/04/23 01:33:08;;;;;;;;;;;;;;;;;;5074329;28;19928;-76
2023/04/23 01:35:55;;;;;;;;;;;;;;;;;;5086294;28;19916;-76
2023/04/23 01:38:41;;;;;;;;;;;;;;;;;;5065851;28;20273;-76
2023/04/23 01:41:28;;;;;;;;;;;;;;;;;;5083529;28;19943;-75
2023/04/23 01:44:15;;;;;;;;;;;;;;;;;;5079135;28;19923;-75
2023/04/23 01:47:02;;;;;;;;;;;;;;;;;;5085080;28;19928;-75
2023/04/23 01:49:49;;;;;;;;;;;;;;;;;;5087041;28;20377;-75
2023/04/23 01:52:35;;;;;;;;;;;;;;;;;;5085838;28;19918;-75
2023/04/23 01:55:22;;;;;;;;;;;;;;;;;;5074641;28;19917;-75
2023/04/23 01:58:09;;;;;;;;;;;;;;;;;;5081294;28;19920;-75
2023/04/23 02:00:55;;;;;;;;;;;;;;;;;;5086818;28;19916;-75
2023/04/23 02:03:42;;;;;;;;;;;;;;;;;;5087736;28;19920;-76
2023/04/23 02:06:28;;;;;;;;;;;;;;;;;;5071957;28;20302;-73
2023/04/23 02:09:15;;;;;;;;;;;;;;;;;;5085276;28;20539;-74
2023/04/23 02:12:01;;;;;;;;;;;;;;;;;;5071399;28;19916;-76
2023/04/23 02:14:47;;;;;;;;;;;;;;;;;;5083873;28;19916;-75
2023/04/23 02:17:34;;;;;;;;;;;;;;;;;;5075064;28;19941;-75
2023/04/23 02:20:20;;;;;;;;;;;;;;;;;;5078311;28;19943;-74
2023/04/23 02:23:07;;;;;;;;;;;;;;;;;;5085364;28;19921;-75
2023/04/23 02:25:53;;;;;;;;;;;;;;;;;;5082490;28;20323;-76
2023/04/23 02:28:40;;;;;;;;;;;;;;;;;;5086728;28;19920;-75
2023/04/23 02:31:27;;;;;;;;;;;;;;;;;;5076880;28;19924;-75
2023/04/23 02:34:13;;;;;;;;;;;;;;;;;;5079558;28;19955;-75
2023/04/23 02:37:00;;;;;;;;;;;;;;;;;;5085479;28;19924;-75
2023/04/23 02:39:46;;;;;;;;;;;;;;;;;;5084255;28;19916;-74
2023/04/23 02:42:33;;;;;;;;;;;;;;;;;;5081100;28;20315;-74
2023/04/23 02:45:19;;;;;;;;;;;;;;;;;;5076558;28;20255;-74
2023/04/23 02:48:06;;;;;;;;;;;;;;;;;;5081691;28;19912;-74
2023/04/23 02:50:52;;;;;;;;;;;;;;;;;;5083774;28;19923;-74
2023/04/23 02:53:39;;;;;;;;;;;;;;;;;;5085405;28;20726;-73
2023/04/23 02:56:25;;;;;;;;;;;;;;;;;;5083782;28;19913;-73
2023/04/23 02:59:11;;;;;;;;;;;;;;;;;;5083987;28;19916;-75
2023/04/23 03:01:58;;;;;;;;;;;;;;;;;;5084845;28;19920;-73
2023/04/23 03:04:45;;;;;;;;;;;;;;;;;;5068871;28;19920;-73
2023/04/23 03:07:31;;;;;;;;;;;;;;;;;;5083411;28;19923;-75
2023/04/23 03:10:18;;;;;;;;;;;;;;;;;;5072611;28;19942;-74
2023/04/23 03:13:04;;;;;;;;;;;;;;;;;;5055459;28;20225;-74
2023/04/23 03:15:50;;;;;;;;;;;;;;;;;;5061600;28;19926;-73
2023/04/23 03:18:37;;;;;;;;;;;;;;;;;;5066978;28;20295;-73
2023/04/23 03:21:23;;;;;;;;;;;;;;;;;;5074101;28;19916;-73
2023/04/23 03:24:10;;;;;;;;;;;;;;;;;;5083962;28;19916;-74
2023/04/23 03:26:57;;;;;;;;;;;;;;;;;;5068889;28;19935;-74
2023/04/23 03:29:43;;;;;;;;;;;;;;;;;;5074800;28;19922;-74
2023/04/23 03:32:30;;;;;;;;;;;;;;;;;;5082778;28;20513;-75
2023/04/23 03:35:16;;;;;;;;;;;;;;;;;;5083449;28;19916;-74
2023/04/23 03:38:03;;;;;;;;;;;;;;;;;;5083888;28;19920;-74
2023/04/23 03:40:49;;;;;;;;;;;;;;;;;;5076558;28;20394;-75
2023/04/23 03:43:38;;;;;;;;;;;;;;;;;;5084087;28;20409;-74
2023/04/23 03:46:24;;;;;;;;;;;;;;;;;;5083230;28;19931;-74
2023/04/23 03:49:10;;;;;;;;;;;;;;;;;;5083026;28;19923;-75
2023/04/23 03:51:57;;;;;;;;;;;;;;;;;;5083030;28;20303;-77
2023/04/23 03:54:43;;;;;;;;;;;;;;;;;;5083938;28;19919;-74
2023/04/23 03:57:30;;;;;;;;;;;;;;;;;;5071100;28;19917;-74
2023/04/23 04:00:16;;;;;;;;;;;;;;;;;;5058919;28;19917;-73
2023/04/23 04:03:03;;;;;;;;;;;;;;;;;;5082597;28;19923;-75
2023/04/23 04:05:49;;;;;;;;;;;;;;;;;;5068095;28;19951;-74
2023/04/23 04:08:36;;;;;;;;;;;;;;;;;;5081625;28;19916;-74
2023/04/23 04:11:22;;;;;;;;;;;;;;;;;;5082973;28;19916;-74
2023/04/23 04:14:09;;;;;;;;;;;;;;;;;;5083633;28;19920;-74
2023/04/23 04:16:55;;;;;;;;;;;;;;;;;;5081058;28;20441;-74
2023/04/23 04:19:42;;;;;;;;;;;;;;;;;;5081315;28;19918;-73
2023/04/23 04:22:29;;;;;;;;;;;;;;;;;;5082989;28;19923;-74
2023/04/23 04:25:16;;;;;;;;;;;;;;;;;;5073142;28;20668;-76
2023/04/23 04:28:03;;;;;;;;;;;;;;;;;;5083455;28;19920;-74
2023/04/23 04:30:50;;;;;;;;;;;;;;;;;;5081858;28;19916;-75
2023/04/23 04:33:38;;;;;;;;;;;;;;;;;;5084282;28;19935;-74
2023/04/23 04:36:25;;;;;;;;;;;;;;;;;;5082425;28;19916;-74
2023/04/23 04:39:13;;;;;;;;;;;;;;;;;;5082586;28;20383;-73
2023/04/23 04:42:01;;;;;;;;;;;;;;;;;;5083165;28;20458;-73
2023/04/23 04:44:48;;;;;;;;;;;;;;;;;;5072814;28;19922;-75
2023/04/23 04:47:35;;;;;;;;;;;;;;;;;;5071719;28;20449;-75
2023/04/23 04:50:21;;;;;;;;;;;;;;;;;;5077543;28;19919;-75
2023/04/23 04:53:08;;;;;;;;;;;;;;;;;;5073343;28;19927;-75
2023/04/23 04:55:54;;;;;;;;;;;;;;;;;;5082645;28;19923;-74
2023/04/23 04:58:41;;;;;;;;;;;;;;;;;;5081808;28;19916;-74
2023/04/23 05:01:27;;;;;;;;;;;;;;;;;;5076439;28;19916;-74
2023/04/23 05:04:14;;;;;;;;;;;;;;;;;;5071766;28;19916;-74
2023/04/23 05:07:00;;;;;;;;;;;;;;;;;;5081257;28;19956;-74
2023/04/23 05:09:47;;;;;;;;;;;;;;;;;;5082638;28;20372;-73
2023/04/23 05:12:33;;;;;;;;;;;;;;;;;;5079384;28;19920;-74
2023/04/23 05:15:20;;;;;;;;;;;;;;;;;;5085727;28;20385;-74
2023/04/23 05:18:06;;;;;;;;;;;;;;;;;;5082983;28;19920;-73
2023/04/23 05:20:53;;;;;;;;;;;;;;;;;;5085510;28;19916;-74
2023/04/23 05:23:39;;;;;;;;;;;;;;;;;;5086396;28;19919;-74
2023/04/23 05:26:26;;;;;;;;;;;;;;;;;;5083514;28;19928;-74
2023/04/23 05:29:16;;;;;;;;;;;;;;;;;;5078171;28;19916;-74
2023/04/23 05:32:03;;;;;;;;;;;;;;;;;;5084044;28;19948;-74
2023/04/23 05:34:49;;;;;;;;;;;;;;;;;;5068176;28;19962;-75
2023/04/23 05:37:36;;;;;;;;;;;;;;;;;;5081967;28;19913;-74
2023/04/23 05:40:22;;;;;;;;;;;;;;;;;;5084610;28;20386;-74
2023/04/23 05:43:09;;;;;;;;;;;;;;;;;;5082890;28;19927;-75
2023/04/23 05:45:55;;;;;;;;;;;;;;;;;;5085990;28;19928;-74
2023/04/23 05:48:42;;;;;;;;;;;;;;;;;;5083997;28;20287;-74
2023/04/23 05:51:28;;;;;;;;;;;;;;;;;;5081226;28;20403;-74
2023/04/23 05:54:15;;;;;;;;;;;;;;;;;;5084491;28;20390;-75
2023/04/23 05:57:01;;;;;;;;;;;;;;;;;;5081403;28;19920;-75
2023/04/23 05:59:48;;;;;;;;;;;;;;;;;;5081742;28;20489;-76
2023/04/23 06:02:34;;;;;;;;;;;;;;;;;;5070943;28;19920;-76
2023/04/23 06:05:21;;;;;;;;;;;;;;;;;;5074180;28;20239;-76
2023/04/23 06:08:07;;;;;;;;;;;;;;;;;;5084935;28;19922;-76
2023/04/23 06:10:55;;;;;;;;;;;;;;;;;;5079970;28;19920;-77
2023/04/23 06:13:41;;;;;;;;;;;;;;;;;;5083631;28;19946;-76
2023/04/23 06:16:28;;;;;;;;;;;;;;;;;;5078778;28;19928;-76
2023/04/23 06:19:15;;;;;;;;;;;;;;;;;;5074822;28;19931;-74
2023/04/23 06:22:01;;;;;;;;;;;;;;;;;;5076385;28;19920;-74
2023/04/23 06:24:47;;;;;;;;;;;;;;;;;;5081641;28;19920;-74
2023/04/23 06:27:34;;;;;;;;;;;;;;;;;;5077324;28;19935;-74
2023/04/23 06:30:20;;;;;;;;;;;;;;;;;;5083828;28;19924;-75
2023/04/23 06:33:08;;;;;;;;;;;;;;;;;;5067792;28;19940;-75
2023/04/23 06:35:54;;;;;;;;;;;;;;;;;;5074872;28;20399;-75
2023/04/23 06:38:41;;;;;;;;;;;;;;;;;;5082830;28;19920;-75
2023/04/23 06:41:27;;;;;;;;;;;;;;;;;;5083025;28;19940;-75
2023/04/23 06:44:14;;;;;;;;;;;;;;;;;;5059954;28;19930;-75
2023/04/23 06:47:00;;;;;;;;;;;;;;;;;;5066700;28;20613;-78
2023/04/23 06:49:47;;;;;;;;;;;;;;;;;;5080742;28;19923;-76
2023/04/23 06:52:34;;;;;;;;;;;;;;;;;;5064697;28;19937;-78
2023/04/23 06:55:24;;;;;;;;;;;;;;;;;;5064393;28;20639;-77
2023/04/23 06:58:11;;;;;;;;;;;;;;;;;;5081251;28;19920;-76
2023/04/23 07:01:03;;;;;;;;;;;;;;;;;;5084263;28;19920;-77
2023/04/23 07:03:53;;;;;;;;;;;;;;;;;;5082335;28;19916;-78
2023/04/23 07:06:39;;;;;;;;;;;;;;;;;;5079213;28;20336;-77
2023/04/23 07:09:26;;;;;;;;;;;;;;;;;;5077100;28;19926;-74
2023/04/23 07:12:12;;;;;;;;;;;;;;;;;;5081768;28;19940;-75
2023/04/23 07:14:59;;;;;;;;;;;;;;;;;;5082758;28;19957;-76
2023/04/23 07:17:45;;;;;;;;;;;;;;;;;;5085280;28;19912;-76
2023/04/23 07:20:32;;;;;;;;;;;;;;;;;;5083639;28;19916;-76
2023/04/23 07:23:18;;;;;;;;;;;;;;;;;;5065872;28;19927;-76
2023/04/23 07:26:05;;;;;;;;;;;;;;;;;;5081294;28;19932;-76
2023/04/23 07:28:51;;;;;;;;;;;;;;;;;;5082375;28;19924;-76
2023/04/23 07:31:38;;;;;;;;;;;;;;;;;;5066244;28;19942;-77
2023/04/23 07:34:24;;;;;;;;;;;;;;;;;;5062855;28;19991;-75
2023/04/23 07:37:11;;;;;;;;;;;;;;;;;;5081168;28;19956;-76
2023/04/23 07:39:57;;;;;;;;;;;;;;;;;;5075849;28;20003;-77
2023/04/23 07:42:44;;;;;;;;;;;;;;;;;;5082074;28;19912;-77
2023/04/23 07:45:30;;;;;;;;;;;;;;;;;;5065496;28;19920;-77
2023/04/23 07:48:17;;;;;;;;;;;;;;;;;;5073741;28;19923;-76
2023/04/23 07:51:05;;;;;;;;;;;;;;;;;;5079227;28;19927;-76
2023/04/23 07:53:53;;;;;;;;;;;;;;;;;;5080767;28;19947;-76
2023/04/23 07:56:39;;;;;;;;;;;;;;;;;;5075733;28;19962;-76
2023/04/23 07:59:26;;;;;;;;;;;;;;;;;;5083978;28;20538;-77
2023/04/23 08:02:12;;;;;;;;;;;;;;;;;;5080912;28;19939;-78
2023/04/23 08:04:58;;;;;;;;;;;;;;;;;;5078261;28;20385;-76
2023/04/23 08:07:45;;;;;;;;;;;;;;;;;;5067224;28;19924;-77
2023/04/23 08:10:31;;;;;;;;;;;;;;;;;;5073195;28;19924;-78
2023/04/23 08:13:18;;;;;;;;;;;;;;;;;;5080790;28;19920;-78
2023/04/23 08:16:05;;;;;;;;;;;;;;;;;;5082475;28;19928;-78
2023/04/23 08:18:52;;;;;;;;;;;;;;;;;;5082974;28;19920;-78
2023/04/23 08:21:38;;;;;;;;;;;;;;;;;;5082435;28;19916;-77
2023/04/23 08:24:26;;;;;;;;;;;;;;;;;;5067710;28;19920;-77
2023/04/23 08:27:12;;;;;;;;;;;;;;;;;;5061803;28;19932;-77
2023/04/23 08:29:59;;;;;;;;;;;;;;;;;;5056493;28;20287;-77
2023/04/23 08:32:45;;;;;;;;;;;;;;;;;;5083061;28;19951;-77
2023/04/23 08:35:32;;;;;;;;;;;;;;;;;;5082553;28;19924;-79
2023/04/23 08:38:18;;;;;;;;;;;;;;;;;;5078059;28;19931;-76
2023/04/23 08:41:05;;;;;;;;;;;;;;;;;;5080985;28;19999;-77
2023/04/23 08:43:51;;;;;;;;;;;;;;;;;;5082128;28;20299;-77
2023/04/23 08:46:38;;;;;;;;;;;;;;;;;;5065122;28;19946;-76
2023/04/23 08:49:25;;;;;;;;;;;;;;;;;;5067438;28;19920;-77
2023/04/23 08:52:11;;;;;;;;;;;;;;;;;;5079027;28;19986;-76
2023/04/23 08:54:58;;;;;;;;;;;;;;;;;;5086906;28;19916;-76
2023/04/23 08:57:44;;;;;;;;;;;;;;;;;;5061199;28;19928;-76
2023/04/23 09:00:31;;;;;;;;;;;;;;;;;;5079211;28;19916;-78
2023/04/23 09:03:17;;;;;;;;;;;;;;;;;;5075273;28;20544;-77
2023/04/23 09:06:04;;;;;;;;;;;;;;;;;;5064330;28;19946;-77
2023/04/23 09:08:51;;;;;;;;;;;;;;;;;;5064529;28;19929;-76
2023/04/23 09:11:38;;;;;;;;;;;;;;;;;;5082455;28;19927;-76
2023/04/23 09:14:25;;;;;;;;;;;;;;;;;;5085367;28;19920;-77
2023/04/23 09:17:11;;;;;;;;;;;;;;;;;;5083186;28;19920;-76
2023/04/23 09:19:57;;;;;;;;;;;;;;;;;;5085875;28;19923;-75
2023/04/23 09:22:44;;;;;;;;;;;;;;;;;;5086197;28;19947;-75
2023/04/23 09:25:31;;;;;;;;;;;;;;;;;;5081042;28;20379;-76
2023/04/23 09:28:17;;;;;;;;;;;;;;;;;;5084359;28;19922;-76
2023/04/23 09:31:04;;;;;;;;;;;;;;;;;;5083047;28;19923;-76
2023/04/23 09:33:51;;;;;;;;;;;;;;;;;;5080873;28;19928;-77
2023/04/23 09:36:37;;;;;;;;;;;;;;;;;;5083124;28;20303;-75
2023/04/23 09:39:24;;;;;;;;;;;;;;;;;;5083947;28;19927;-74
2023/04/23 09:42:12;;;;;;;;;;;;;;;;;;5083151;28;19924;-75
2023/04/23 09:44:58;;;;;;;;;;;;;;;;;;5086111;28;19920;-75
2023/04/23 09:47:45;;;;;;;;;;;;;;;;;;5085535;28;19924;-75
2023/04/23 09:50:31;;;;;;;;;;;;;;;;;;5084105;28;20473;-75
2023/04/23 09:53:18;;;;;;;;;;;;;;;;;;5080062;28;20329;-75
2023/04/23 09:56:04;;;;;;;;;;;;;;;;;;5082374;28;19931;-75
2023/04/23 09:58:51;;;;;;;;;;;;;;;;;;5065407;28;19920;-75
2023/04/23 10:01:37;;;;;;;;;;;;;;;;;;5084681;28;19972;-75
2023/04/23 10:04:24;;;;;;;;;;;;;;;;;;5083632;28;19916;-75
2023/04/23 10:07:13;;;;;;;;;;;;;;;;;;5082852;28;19931;-75
2023/04/23 10:10:00;;;;;;;;;;;;;;;;;;5081932;28;19927;-75
2023/04/23 10:12:46;;;;;;;;;;;;;;;;;;5080633;28;19916;-75
2023/04/23 10:15:33;;;;;;;;;;;;;;;;;;5082053;28;19920;-75
2023/04/23 10:18:19;;;;;;;;;;;;;;;;;;5080296;28;19916;-74
2023/04/23 10:21:06;;;;;;;;;;;;;;;;;;5082182;28;19920;-75
2023/04/23 10:23:52;;;;;;;;;;;;;;;;;;5084753;28;19938;-75
2023/04/23 10:26:39;;;;;;;;;;;;;;;;;;5079429;28;19943;-74
2023/04/23 10:29:25;;;;;;;;;;;;;;;;;;5056927;28;19920;-75
2023/04/23 10:32:12;;;;;;;;;;;;;;;;;;5074757;28;19927;-75
2023/04/23 10:34:58;;;;;;;;;;;;;;;;;;5060676;28;19928;-75
2023/04/23 10:37:45;;;;;;;;;;;;;;;;;;5064540;28;19924;-75
2023/04/23 10:40:32;;;;;;;;;;;;;;;;;;5061946;28;20277;-75
2023/04/23 10:43:18;;;;;;;;;;;;;;;;;;5061164;28;19943;-75
2023/04/23 10:46:05;;;;;;;;;;;;;;;;;;5063131;28;20376;-75
2023/04/23 10:48:51;;;;;;;;;;;;;;;;;;5063033;28;19916;-75
2023/04/23 10:51:38;;;;;;;;;;;;;;;;;;5052693;28;20360;-75
2023/04/23 10:54:24;;;;;;;;;;;;;;;;;;5047643;28;19939;-75
2023/04/23 10:57:11;;;;;;;;;;;;;;;;;;5062930;28;19939;-75
2023/04/23 10:59:57;;;;;;;;;;;;;;;;;;5064086;28;19926;-76
2023/04/23 11:02:44;;;;;;;;;;;;;;;;;;5064333;28;19944;-75
2023/04/23 11:05:31;;;;;;;;;;;;;;;;;;5049328;28;20408;-75
2023/04/23 11:08:17;;;;;;;;;;;;;;;;;;5059657;28;19929;-77
2023/04/23 11:11:04;;;;;;;;;;;;;;;;;;5057823;28;19920;-75
2023/04/23 11:13:52;;;;;;;;;;;;;;;;;;5052393;28;19947;-76
2023/04/23 11:16:38;;;;;;;;;;;;;;;;;;5062913;28;19920;-76
2023/04/23 11:19:25;;;;;;;;;;;;;;;;;;5062176;28;19935;-75
2023/04/23 11:22:11;;;;;;;;;;;;;;;;;;5046888;28;20396;-77
2023/04/23 11:24:58;;;;;;;;;;;;;;;;;;5061923;28;19960;-78
2023/04/23 11:27:44;;;;;;;;;;;;;;;;;;5058513;28;20356;-77
2023/04/23 11:30:31;;;;;;;;;;;;;;;;;;5057440;28;19927;-77
2023/04/23 11:33:18;;;;;;;;;;;;;;;;;;5057402;28;19931;-77
2023/04/23 11:36:04;;;;;;;;;;;;;;;;;;5079240;28;19920;-78
2023/04/23 11:38:53;;;;;;;;;;;;;;;;;;5078530;28;19931;-79
2023/04/23 11:41:42;;;;;;;;;;;;;;;;;;5066413;28;19927;-84
2023/04/23 11:44:31;;;;;;;;;;;;;;;;;;5081712;28;19920;-81
2023/04/23 11:47:18;;;;;;;;;;;;;;;;;;5075710;28;19924;-78
2023/04/23 11:50:04;;;;;;;;;;;;;;;;;;5082433;28;19920;-78
2023/04/23 11:52:51;;;;;;;;;;;;;;;;;;5080151;28;20371;-79
2023/04/23 11:55:42;;;;;;;;;;;;;;;;;;5080736;28;20534;-78
2023/04/23 11:58:29;;;;;;;;;;;;;;;;;;5063692;28;19920;-78
2023/04/23 12:01:15;;;;;;;;;;;;;;;;;;5084219;28;19916;-77
2023/04/23 12:04:02;;;;;;;;;;;;;;;;;;5081154;28;20117;-78
2023/04/23 12:06:48;;;;;;;;;;;;;;;;;;5081452;28;19935;-77
2023/04/23 12:09:36;;;;;;;;;;;;;;;;;;5078196;28;19916;-81
2023/04/23 12:12:23;;;;;;;;;;;;;;;;;;5081031;28;20406;-80
2023/04/23 12:15:09;;;;;;;;;;;;;;;;;;5065822;28;19924;-81
2023/04/23 12:17:56;;;;;;;;;;;;;;;;;;5078501;28;20006;-80
2023/04/23 12:20:42;;;;;;;;;;;;;;;;;;5065100;28;20656;-80
2023/04/23 12:23:29;;;;;;;;;;;;;;;;;;5080969;28;20389;-79
2023/04/23 12:26:16;;;;;;;;;;;;;;;;;;5081346;28;19927;-79
2023/04/23 12:29:03;;;;;;;;;;;;;;;;;;5079602;28;19935;-79
2023/04/23 12:31:50;;;;;;;;;;;;;;;;;;5064958;28;19919;-80
2023/04/23 12:34:37;;;;;;;;;;;;;;;;;;5059825;28;19931;-79
2023/04/23 12:37:24;;;;;;;;;;;;;;;;;;5043749;28;19924;-80
2023/04/23 12:40:11;;;;;;;;;;;;;;;;;;5062891;28;20287;-79
2023/04/23 12:42:57;;;;;;;;;;;;;;;;;;5053077;28;19921;-76
2023/04/23 12:45:44;;;;;;;;;;;;;;;;;;5046880;28;20269;-79
2023/04/23 12:48:31;;;;;;;;;;;;;;;;;;5058335;28;19936;-79
2023/04/23 12:51:17;;;;;;;;;;;;;;;;;;5060815;28;19916;-78
2023/04/23 12:54:04;;;;;;;;;;;;;;;;;;5060252;28;19933;-79
2023/04/23 12:56:50;;;;;;;;;;;;;;;;;;5060612;28;19913;-79
2023/04/23 12:59:43;;;;;;;;;;;;;;;;;;5062433;28;19927;-81
2023/04/23 13:02:29;;;;;;;;;;;;;;;;;;5059326;28;19916;-81
2023/04/23 13:05:16;;;;;;;;;;;;;;;;;;5060672;28;19924;-80
2023/04/23 13:08:02;;;;;;;;;;;;;;;;;;5061681;28;19929;-80
2023/04/23 13:10:49;;;;;;;;;;;;;;;;;;5042804;28;19928;-81
2023/04/23 13:13:35;;;;;;;;;;;;;;;;;;5062277;28;19954;-80
2023/04/23 13:16:22;;;;;;;;;;;;;;;;;;5059551;28;20386;-79
2023/04/23 13:19:08;;;;;;;;;;;;;;;;;;5058669;28;19927;-81
2023/04/23 13:21:55;;;;;;;;;;;;;;;;;;5059448;28;20288;-80
2023/04/23 13:24:41;;;;;;;;;;;;;;;;;;5063006;28;19928;-79
2023/04/23 13:27:28;;;;;;;;;;;;;;;;;;5056658;28;19929;-78
2023/04/23 13:30:14;;;;;;;;;;;;;;;;;;5045089;28;19923;-80
2023/04/23 13:33:01;;;;;;;;;;;;;;;;;;5071822;28;19928;-80
2023/04/23 13:35:48;;;;;;;;;;;;;;;;;;5081057;28;19919;-78
2023/04/23 13:38:34;;;;;;;;;;;;;;;;;;5085057;28;19916;-77
2023/04/23 13:41:21;;;;;;;;;;;;;;;;;;5084594;28;19923;-77
2023/04/23 13:44:07;;;;;;;;;;;;;;;;;;5083714;28;20026;-80
2023/04/23 13:46:55;;;;;;;;;;;;;;;;;;5081266;28;19931;-81
2023/04/23 13:49:42;;;;;;;;;;;;;;;;;;5082492;28;19978;-81
2023/04/23 13:52:30;;;;;;;;;;;;;;;;;;5084277;28;20287;-81
2023/04/23 13:55:17;;;;;;;;;;;;;;;;;;5085920;28;19916;-82
2023/04/23 13:58:03;;;;;;;;;;;;;;;;;;5085144;28;19924;-81
2023/04/23 14:00:50;;;;;;;;;;;;;;;;;;5083302;28;19916;-83
2023/04/23 14:03:36;;;;;;;;;;;;;;;;;;5084283;28;19920;-81
2023/04/23 14:06:23;;;;;;;;;;;;;;;;;;5085034;28;19924;-82
2023/04/23 14:09:09;;;;;;;;;;;;;;;;;;5083637;28;20371;-81
2023/04/23 14:11:56;;;;;;;;;;;;;;;;;;5083749;28;19916;-79
2023/04/23 14:14:42;;;;;;;;;;;;;;;;;;5084469;28;19913;-81
2023/04/23 14:17:29;;;;;;;;;;;;;;;;;;5083432;28;19923;-81
2023/04/23 14:20:16;;;;;;;;;;;;;;;;;;5082799;28;19936;-80
2023/04/23 14:23:02;;;;;;;;;;;;;;;;;;5082362;28;19923;-80
2023/04/23 14:25:49;;;;;;;;;;;;;;;;;;5083438;28;19930;-82
2023/04/23 14:28:35;;;;;;;;;;;;;;;;;;5082352;28;20295;-79
2023/04/23 14:31:22;;;;;;;;;;;;;;;;;;5083233;28;19920;-79
2023/04/23 14:34:08;;;;;;;;;;;;;;;;;;5081833;28;19938;-80
2023/04/23 14:36:55;;;;;;;;;;;;;;;;;;5085075;28;19916;-81
2023/04/23 14:39:41;;;;;;;;;;;;;;;;;;5084014;28;19912;-80
2023/04/23 14:42:28;;;;;;;;;;;;;;;;;;5057652;28;19920;-80
2023/04/23 14:45:14;;;;;;;;;;;;;;;;;;5082150;28;19920;-81
2023/04/23 14:48:01;;;;;;;;;;;;;;;;;;5082262;28;19924;-80
2023/04/23 14:50:47;;;;;;;;;;;;;;;;;;5081010;28;19932;-81
2023/04/23 14:53:34;;;;;;;;;;;;;;;;;;5080123;28;20367;-80
2023/04/23 14:56:20;;;;;;;;;;;;;;;;;;5083401;28;19920;-79
2023/04/23 14:59:07;;;;;;;;;;;;;;;;;;5081806;28;19947;-80
2023/04/23 15:01:55;;;;;;;;;;;;;;;;;;5082766;28;19924;-79
2023/04/23 15:04:42;;;;;;;;;;;;;;;;;;5063097;28;19927;-77
2023/04/23 15:07:30;;;;;;;;;;;;;;;;;;5083525;28;19928;-76
2023/04/23 15:10:17;;;;;;;;;;;;;;;;;;5081542;28;19923;-76
2023/04/23 15:13:04;;;;;;;;;;;;;;;;;;5081094;28;19924;-76
2023/04/23 15:15:52;;;;;;;;;;;;;;;;;;5081968;28;19935;-77
2023/04/23 15:18:38;;;;;;;;;;;;;;;;;;5082366;28;20284;-76
2023/04/23 15:21:25;;;;;;;;;;;;;;;;;;5079466;28;19916;-76
2023/04/23 15:24:11;;;;;;;;;;;;;;;;;;5081311;28;19920;-77
2023/04/23 15:26:58;;;;;;;;;;;;;;;;;;5078924;28;19928;-76
2023/04/23 15:29:44;;;;;;;;;;;;;;;;;;5075795;28;20295;-77
2023/04/23 15:32:31;;;;;;;;;;;;;;;;;;5078061;28;19920;-77
2023/04/23 15:35:18;;;;;;;;;;;;;;;;;;5065819;28;20284;-76
2023/04/23 15:38:04;;;;;;;;;;;;;;;;;;5079992;28;19927;-77
2023/04/23 15:40:51;;;;;;;;;;;;;;;;;;5082020;28;19916;-77
2023/04/23 15:43:37;;;;;;;;;;;;;;;;;;5083108;28;19912;-77
2023/04/23 15:46:24;;;;;;;;;;;;;;;;;;5074684;28;19921;-77
2023/04/23 15:49:10;;;;;;;;;;;;;;;;;;5080592;28;20657;-77
2023/04/23 15:51:57;;;;;;;;;;;;;;;;;;5076991;28;19927;-76
2023/04/23 15:54:43;;;;;;;;;;;;;;;;;;5069283;28;19925;-76
2023/04/23 15:57:30;;;;;;;;;;;;;;;;;;5080039;28;19951;-76
2023/04/23 16:00:17;;;;;;;;;;;;;;;;;;5080376;28;19951;-77
2023/04/23 16:03:05;;;;;;;;;;;;;;;;;;5066293;28;19924;-76
2023/04/23 16:05:51;;;;;;;;;;;;;;;;;;5079882;28;20833;-77
2023/04/23 16:08:38;;;;;;;;;;;;;;;;;;5066888;28;19935;-77
2023/04/23 16:11:27;;;;;;;;;;;;;;;;;;5073840;28;19920;-76
2023/04/23 16:14:13;;;;;;;;;;;;;;;;;;5076279;28;19920;-76
2023/04/23 16:17:00;;;;;;;;;;;;;;;;;;5078407;28;20306;-76
2023/04/23 16:19:46;;;;;;;;;;;;;;;;;;5072154;28;19917;-77
2023/04/23 16:22:33;;;;;;;;;;;;;;;;;;5081962;28;20216;-77
2023/04/23 16:25:19;;;;;;;;;;;;;;;;;;5075197;28;19916;-77
2023/04/23 16:28:06;;;;;;;;;;;;;;;;;;5081237;28;19921;-77
2023/04/23 16:30:52;;;;;;;;;;;;;;;;;;5079544;28;19920;-77
2023/04/23 16:33:39;;;;;;;;;;;;;;;;;;5082253;28;19951;-77
2023/04/23 16:36:25;;;;;;;;;;;;;;;;;;5080324;28;19927;-77
2023/04/23 16:39:12;;;;;;;;;;;;;;;;;;5076941;28;19916;-79
2023/04/23 16:41:58;;;;;;;;;;;;;;;;;;5079597;28;20295;-78
2023/04/23 16:44:45;;;;;;;;;;;;;;;;;;5082977;28;19916;-80
2023/04/23 16:47:32;;;;;;;;;;;;;;;;;;5078515;28;19935;-80
2023/04/23 16:50:18;;;;;;;;;;;;;;;;;;5081257;28;19927;-80
2023/04/23 16:53:05;;;;;;;;;;;;;;;;;;5075135;28;20323;-79
2023/04/23 16:55:51;;;;;;;;;;;;;;;;;;5081406;28;20395;-79
2023/04/23 16:58:38;;;;;;;;;;;;;;;;;;5080691;28;19916;-80
2023/04/23 17:01:24;;;;;;;;;;;;;;;;;;5081645;28;19917;-78
2023/04/23 17:04:11;;;;;;;;;;;;;;;;;;5084604;28;19923;-78
2023/04/23 17:06:57;;;;;;;;;;;;;;;;;;5086777;28;19928;-77
2023/04/23 17:09:44;;;;;;;;;;;;;;;;;;5073461;28;19950;-77
2023/04/23 17:12:30;;;;;;;;;;;;;;;;;;5083979;28;19920;-77
2023/04/23 17:15:17;;;;;;;;;;;;;;;;;;5084555;28;19930;-78
2023/04/23 17:18:03;;;;;;;;;;;;;;;;;;5070665;28;19916;-78
2023/04/23 17:20:50;;;;;;;;;;;;;;;;;;5086829;28;19920;-78
2023/04/23 17:23:36;;;;;;;;;;;;;;;;;;5070537;28;19924;-79
2023/04/23 17:26:23;;;;;;;;;;;;;;;;;;5079914;28;19924;-79
2023/04/23 17:29:10;;;;;;;;;;;;;;;;;;5083889;28;19924;-79
2023/04/23 17:31:56;;;;;;;;;;;;;;;;;;5084235;28;19920;-80
2023/04/23 17:34:45;;;;;;;;;;;;;;;;;;5085370;28;19924;-82
2023/04/23 17:37:31;;;;;;;;;;;;;;;;;;5079819;28;19924;-78
2023/04/23 17:40:18;;;;;;;;;;;;;;;;;;5068102;28;19943;-79
2023/04/23 17:43:05;;;;;;;;;;;;;;;;;;5080786;28;19923;-78
2023/04/23 17:45:51;;;;;;;;;;;;;;;;;;5089872;28;19920;-79
2023/04/23 17:48:38;;;;;;;;;;;;;;;;;;5082883;28;19931;-79
2023/04/23 17:51:24;;;;;;;;;;;;;;;;;;5081687;28;19924;-83
2023/04/23 17:54:10;;;;;;;;;;;;;;;;;;5085705;28;22220;-78
2023/04/23 17:56:57;;;;;;;;;;;;;;;;;;5077648;28;19920;-80
2023/04/23 17:59:43;;;;;;;;;;;;;;;;;;5070677;28;19951;-78
2023/04/23 18:02:30;;;;;;;;;;;;;;;;;;5084917;28;19927;-79
2023/04/23 18:05:16;;;;;;;;;;;;;;;;;;5082050;28;19920;-78
2023/04/23 18:08:05;;;;;;;;;;;;;;;;;;5083371;28;20708;-76
2023/04/23 18:10:52;;;;;;;;;;;;;;;;;;5063415;28;19921;-77
2023/04/23 18:13:38;;;;;;;;;;;;;;;;;;5081933;28;19935;-78
2023/04/23 18:16:25;;;;;;;;;;;;;;;;;;5083307;28;19927;-77
2023/04/23 18:19:11;;;;;;;;;;;;;;;;;;5081172;28;19920;-78
2023/04/23 18:22:00;;;;;;;;;;;;;;;;;;5085264;28;19928;-77
2023/04/23 18:24:49;;;;;;;;;;;;;;;;;;5082892;28;19935;-77
2023/04/23 18:27:35;;;;;;;;;;;;;;;;;;5080519;28;19930;-78
2023/04/23 18:30:24;;;;;;;;;;;;;;;;;;5085676;28;19923;-78
2023/04/23 18:33:11;;;;;;;;;;;;;;;;;;5066631;28;19934;-78
2023/04/23 18:35:58;;;;;;;;;;;;;;;;;;5053814;28;19917;-77
2023/04/23 18:38:45;;;;;;;;;;;;;;;;;;5053630;28;19983;-76
2023/04/23 18:41:33;;;;;;;;;;;;;;;;;;5055807;28;19927;-77
2023/04/23 18:44:19;;;;;;;;;;;;;;;;;;5055258;28;19924;-78
2023/04/23 18:47:06;;;;;;;;;;;;;;;;;;5063917;28;19924;-78
2023/04/23 18:49:53;;;;;;;;;;;;;;;;;;5064004;28;19921;-80
2023/04/23 18:52:39;;;;;;;;;;;;;;;;;;5061137;28;19920;-79
2023/04/23 18:55:26;;;;;;;;;;;;;;;;;;5048095;28;19924;-79
2023/04/23 18:58:12;;;;;;;;;;;;;;;;;;5061557;28;19997;-80